sensor_id;sensor_type;location;lat;lon;timestamp;pressure;altitude;pressure_sealevel;temperature;humidity
57594;BME280;43423;46.510;6.686;2023-10-19T00:00:35;95099.31;;;13.74;100.00
57594;BME280;43423;46.510;6.686;2023-10-19T00:03:30;95102.41;;;13.44;100.00
57594;BME280;43423;46.510;6.686;2023-10-19T00:05:56;95099.41;;;13.29;100.00
57594;BME280;43423;46.510;6.686;2023-10-19T00:08:21;95095.19;;;12.96;100.00
57594;BME280;43423;46.510;6.686;2023-10-19T00:10:50;95100.09;;;13.16;100.00
57594;BME280;43423;46.510;6.686;2023-10-19T00:13:38;95083.59;;;12.84;100.00
57594;BME280;43423;46.510;6.686;2023-10-19T00:16:08;95079.97;;;12.76;100.00
57594;BME280;43423;46.510;6.686;2023-10-19T00:18:43;95072.03;;;12.85;100.00
57594;BME280;43423;46.510;6.686;2023-10-19T00:21:10;95075.25;;;13.03;100.00
57594;BME280;43423;46.510;6.686;2023-10-19T00:23:46;95077.06;;;13.13;100.00
57594;BME280;43423;46.510;6.686;2023-10-19T00:26:13;95076.63;;;12.96;100.00
57594;BME280;43423;46.510;6.686;2023-10-19T00:28:48;95074.66;;;12.78;100.00
57594;BME280;43423;46.510;6.686;2023-10-19T00:31:18;95075.50;;;12.73;100.00
57594;BME280;43423;46.510;6.686;2023-10-19T00:33:46;95070.00;;;12.73;100.00
57594;BME280;43423;46.510;6.686;2023-10-19T00:36:12;95063.16;;;12.61;100.00
57594;BME280;43423;46.510;6.686;2023-10-19T00:38:41;95068.88;;;12.63;100.00
57594;BME280;43423;46.510;6.686;2023-10-19T00:41:25;95079.91;;;12.63;100.00
57594;BME280;43423;46.510;6.686;2023-10-19T00:44:00;95080.78;;;12.71;100.00
57594;BME280;43423;46.510;6.686;2023-10-19T00:46:33;95087.88;;;12.66;100.00
57594;BME280;43423;46.510;6.686;2023-10-19T00:49:09;95080.91;;;12.65;100.00
57594;BME280;43423;46.510;6.686;2023-10-19T00:51:49;95076.13;;;12.66;100.00
57594;BME280;43423;46.510;6.686;2023-10-19T00:54:32;95095.25;;;12.77;100.00
57594;BME280;43423;46.510;6.686;2023-10-19T00:57:03;95085.41;;;12.95;100.00
57594;BME280;43423;46.510;6.686;2023-10-19T00:59:32;95087.63;;;12.83;100.00
57594;BME280;43423;46.510;6.686;2023-10-19T01:02:01;95079.56;;;12.85;100.00
57594;BME280;43423;46.510;6.686;2023-10-19T01:04:47;95071.75;;;13.02;100.00
57594;BME280;43423;46.510;6.686;2023-10-19T01:07:22;95060.50;;;13.00;100.00
57594;BME280;43423;46.510;6.686;2023-10-19T01:10:03;95060.06;;;12.96;100.00
57594;BME280;43423;46.510;6.686;2023-10-19T01:12:33;95057.41;;;12.91;100.00
57594;BME280;43423;46.510;6.686;2023-10-19T01:15:12;95056.09;;;13.24;100.00
57594;BME280;43423;46.510;6.686;2023-10-19T01:17:55;95057.69;;;13.32;100.00
57594;BME280;43423;46.510;6.686;2023-10-19T01:20:30;95051.16;;;13.17;100.00
57594;BME280;43423;46.510;6.686;2023-10-19T01:22:58;95044.84;;;13.22;100.00
57594;BME280;43423;46.510;6.686;2023-10-19T01:25:42;95043.44;;;13.15;100.00
57594;BME280;43423;46.510;6.686;2023-10-19T01:28:11;95041.94;;;13.14;100.00
57594;BME280;43423;46.510;6.686;2023-10-19T01:30:41;95049.81;;;13.23;100.00
57594;BME280;43423;46.510;6.686;2023-10-19T01:33:07;95052.97;;;13.14;100.00
57594;BME280;43423;46.510;6.686;2023-10-19T01:35:42;95043.97;;;13.13;100.00
57594;BME280;43423;46.510;6.686;2023-10-19T01:38:27;95034.59;;;13.17;100.00
57594;BME280;43423;46.510;6.686;2023-10-19T01:40:56;95038.66;;;13.16;100.00
57594;BME280;43423;46.510;6.686;2023-10-19T01:43:26;95027.81;;;13.18;100.00
57594;BME280;43423;46.510;6.686;2023-10-19T01:45:56;95020.41;;;13.26;100.00
57594;BME280;43423;46.510;6.686;2023-10-19T01:48:22;95022.34;;;13.31;100.00
57594;BME280;43423;46.510;6.686;2023-10-19T01:50:53;95001.72;;;13.45;100.00
57594;BME280;43423;46.510;6.686;2023-10-19T01:53:19;95003.00;;;13.44;100.00
57594;BME280;43423;46.510;6.686;2023-10-19T01:55:50;94996.75;;;13.44;100.00
57594;BME280;43423;46.510;6.686;2023-10-19T01:58:24;94995.38;;;13.37;100.00
57594;BME280;43423;46.510;6.686;2023-10-19T02:00:53;94991.53;;;13.13;100.00
57594;BME280;43423;46.510;6.686;2023-10-19T02:03:32;94984.09;;;13.08;100.00
57594;BME280;43423;46.510;6.686;2023-10-19T02:05:58;94969.75;;;13.10;100.00
57594;BME280;43423;46.510;6.686;2023-10-19T02:08:25;94968.59;;;13.19;100.00
57594;BME280;43423;46.510;6.686;2023-10-19T02:10:55;94965.81;;;13.19;100.00
57594;BME280;43423;46.510;6.686;2023-10-19T02:13:21;94974.34;;;13.21;100.00
57594;BME280;43423;46.510;6.686;2023-10-19T02:15:46;94969.59;;;13.21;100.00
57594;BME280;43423;46.510;6.686;2023-10-19T02:18:12;94959.06;;;13.20;100.00
57594;BME280;43423;46.510;6.686;2023-10-19T02:20:37;94959.91;;;13.28;100.00
57594;BME280;43423;46.510;6.686;2023-10-19T02:23:09;94966.28;;;13.36;100.00
57594;BME280;43423;46.510;6.686;2023-10-19T02:25:35;94965.75;;;13.37;100.00
57594;BME280;43423;46.510;6.686;2023-10-19T02:28:06;94959.16;;;13.40;100.00
57594;BME280;43423;46.510;6.686;2023-10-19T02:30:33;94961.38;;;13.42;100.00
57594;BME280;43423;46.510;6.686;2023-10-19T02:33:00;94961.34;;;13.55;100.00
57594;BME280;43423;46.510;6.686;2023-10-19T02:35:31;94964.53;;;13.59;100.00
57594;BME280;43423;46.510;6.686;2023-10-19T02:37:57;94966.19;;;13.76;100.00
57594;BME280;43423;46.510;6.686;2023-10-19T02:40:23;94959.34;;;13.90;100.00
57594;BME280;43423;46.510;6.686;2023-10-19T02:42:49;94959.16;;;14.09;100.00
57594;BME280;43423;46.510;6.686;2023-10-19T02:45:19;94945.28;;;14.01;100.00
57594;BME280;43423;46.510;6.686;2023-10-19T02:47:46;94935.47;;;13.79;100.00
57594;BME280;43423;46.510;6.686;2023-10-19T02:50:12;94923.31;;;13.61;100.00
57594;BME280;43423;46.510;6.686;2023-10-19T02:52:48;94922.59;;;13.82;100.00
57594;BME280;43423;46.510;6.686;2023-10-19T02:55:14;94924.88;;;13.70;100.00
57594;BME280;43423;46.510;6.686;2023-10-19T02:57:42;94938.38;;;13.94;100.00
57594;BME280;43423;46.510;6.686;2023-10-19T03:00:12;94928.34;;;14.05;100.00
57594;BME280;43423;46.510;6.686;2023-10-19T03:02:40;94923.28;;;13.75;100.00
57594;BME280;43423;46.510;6.686;2023-10-19T03:05:06;94918.94;;;13.66;100.00
57594;BME280;43423;46.510;6.686;2023-10-19T03:07:43;94905.66;;;13.30;100.00
57594;BME280;43423;46.510;6.686;2023-10-19T03:10:10;94903.75;;;13.25;100.00
57594;BME280;43423;46.510;6.686;2023-10-19T03:12:50;94889.53;;;13.21;100.00
57594;BME280;43423;46.510;6.686;2023-10-19T03:15:16;94891.53;;;13.07;100.00
57594;BME280;43423;46.510;6.686;2023-10-19T03:17:46;94892.41;;;13.29;100.00
57594;BME280;43423;46.510;6.686;2023-10-19T03:20:12;94899.47;;;13.72;100.00
57594;BME280;43423;46.510;6.686;2023-10-19T03:22:38;94899.97;;;13.49;100.00
57594;BME280;43423;46.510;6.686;2023-10-19T03:25:07;94901.91;;;13.41;100.00
57594;BME280;43423;46.510;6.686;2023-10-19T03:27:51;94898.84;;;13.18;100.00
57594;BME280;43423;46.510;6.686;2023-10-19T03:30:18;94890.38;;;13.16;100.00
57594;BME280;43423;46.510;6.686;2023-10-19T03:32:45;94889.97;;;12.99;100.00
57594;BME280;43423;46.510;6.686;2023-10-19T03:35:11;94878.50;;;12.95;100.00
57594;BME280;43423;46.510;6.686;2023-10-19T03:37:41;94863.44;;;12.96;100.00
57594;BME280;43423;46.510;6.686;2023-10-19T03:40:08;94855.34;;;13.11;100.00
57594;BME280;43423;46.510;6.686;2023-10-19T03:42:36;94850.66;;;13.19;100.00
57594;BME280;43423;46.510;6.686;2023-10-19T03:45:09;94857.28;;;13.50;100.00
57594;BME280;43423;46.510;6.686;2023-10-19T03:47:41;94840.63;;;13.43;100.00
57594;BME280;43423;46.510;6.686;2023-10-19T03:50:09;94845.13;;;13.32;100.00
57594;BME280;43423;46.510;6.686;2023-10-19T03:52:40;94835.25;;;13.37;100.00
57594;BME280;43423;46.510;6.686;2023-10-19T03:55:06;94834.28;;;13.34;100.00
57594;BME280;43423;46.510;6.686;2023-10-19T03:57:36;94854.28;;;13.27;100.00
57594;BME280;43423;46.510;6.686;2023-10-19T04:00:07;94844.66;;;13.41;100.00
57594;BME280;43423;46.510;6.686;2023-10-19T04:02:36;94835.53;;;13.47;100.00
57594;BME280;43423;46.510;6.686;2023-10-19T04:05:04;94836.31;;;13.34;100.00
57594;BME280;43423;46.510;6.686;2023-10-19T04:07:30;94838.03;;;13.24;100.00
57594;BME280;43423;46.510;6.686;2023-10-19T04:09:58;94840.16;;;13.18;100.00
57594;BME280;43423;46.510;6.686;2023-10-19T04:12:30;94842.63;;;13.21;100.00
57594;BME280;43423;46.510;6.686;2023-10-19T04:15:01;94831.88;;;13.18;100.00
57594;BME280;43423;46.510;6.686;2023-10-19T04:17:41;94837.19;;;13.16;100.00
57594;BME280;43423;46.510;6.686;2023-10-19T04:20:09;94841.44;;;13.17;100.00
57594;BME280;43423;46.510;6.686;2023-10-19T04:22:55;94833.69;;;13.28;100.00
57594;BME280;43423;46.510;6.686;2023-10-19T04:25:31;94823.59;;;13.31;100.00
57594;BME280;43423;46.510;6.686;2023-10-19T04:27:57;94826.88;;;13.29;100.00
57594;BME280;43423;46.510;6.686;2023-10-19T04:30:22;94825.41;;;13.15;100.00
57594;BME280;43423;46.510;6.686;2023-10-19T04:32:49;94834.44;;;13.16;100.00
57594;BME280;43423;46.510;6.686;2023-10-19T04:35:16;94841.78;;;13.13;100.00
57594;BME280;43423;46.510;6.686;2023-10-19T04:37:51;94814.78;;;13.19;100.00
57594;BME280;43423;46.510;6.686;2023-10-19T04:40:18;94807.91;;;13.12;100.00
57594;BME280;43423;46.510;6.686;2023-10-19T04:42:45;94793.41;;;12.99;100.00
57594;BME280;43423;46.510;6.686;2023-10-19T04:45:11;94788.44;;;13.18;100.00
57594;BME280;43423;46.510;6.686;2023-10-19T04:47:38;94780.78;;;13.03;100.00
57594;BME280;43423;46.510;6.686;2023-10-19T04:50:04;94795.16;;;13.23;100.00
57594;BME280;43423;46.510;6.686;2023-10-19T04:52:31;94794.84;;;13.13;100.00
57594;BME280;43423;46.510;6.686;2023-10-19T04:54:57;94788.88;;;12.88;100.00
57594;BME280;43423;46.510;6.686;2023-10-19T04:57:23;94781.66;;;12.85;100.00
57594;BME280;43423;46.510;6.686;2023-10-19T04:59:49;94779.59;;;12.99;100.00
57594;BME280;43423;46.510;6.686;2023-10-19T05:02:16;94791.22;;;13.18;100.00
57594;BME280;43423;46.510;6.686;2023-10-19T05:04:41;94820.16;;;13.04;100.00
57594;BME280;43423;46.510;6.686;2023-10-19T05:07:07;94814.41;;;13.02;100.00
57594;BME280;43423;46.510;6.686;2023-10-19T05:09:37;94804.31;;;13.04;100.00
57594;BME280;43423;46.510;6.686;2023-10-19T05:12:06;94785.81;;;12.78;100.00
57594;BME280;43423;46.510;6.686;2023-10-19T05:14:35;94762.00;;;12.41;100.00
57594;BME280;43423;46.510;6.686;2023-10-19T05:17:04;94773.81;;;12.76;100.00
57594;BME280;43423;46.510;6.686;2023-10-19T05:19:31;94763.66;;;12.71;100.00
57594;BME280;43423;46.510;6.686;2023-10-19T05:21:57;94751.66;;;12.81;100.00
57594;BME280;43423;46.510;6.686;2023-10-19T05:24:22;94747.91;;;12.92;100.00
57594;BME280;43423;46.510;6.686;2023-10-19T05:26:48;94745.59;;;12.83;100.00
57594;BME280;43423;46.510;6.686;2023-10-19T05:29:13;94748.56;;;12.85;100.00
57594;BME280;43423;46.510;6.686;2023-10-19T05:31:39;94752.22;;;12.67;100.00
57594;BME280;43423;46.510;6.686;2023-10-19T05:34:05;94748.38;;;12.70;100.00
57594;BME280;43423;46.510;6.686;2023-10-19T05:36:31;94730.25;;;12.61;100.00
57594;BME280;43423;46.510;6.686;2023-10-19T05:38:57;94730.81;;;12.60;100.00
57594;BME280;43423;46.510;6.686;2023-10-19T05:41:23;94726.59;;;12.79;100.00
57594;BME280;43423;46.510;6.686;2023-10-19T05:43:48;94718.47;;;12.74;100.00
57594;BME280;43423;46.510;6.686;2023-10-19T05:46:15;94708.19;;;12.74;100.00
57594;BME280;43423;46.510;6.686;2023-10-19T05:48:43;94709.13;;;12.77;100.00
57594;BME280;43423;46.510;6.686;2023-10-19T05:51:11;94711.22;;;12.84;100.00
57594;BME280;43423;46.510;6.686;2023-10-19T05:53:36;94721.50;;;12.83;100.00
57594;BME280;43423;46.510;6.686;2023-10-19T05:56:03;94718.09;;;12.91;100.00
57594;BME280;43423;46.510;6.686;2023-10-19T05:58:28;94716.34;;;13.01;100.00
57594;BME280;43423;46.510;6.686;2023-10-19T06:00:58;94727.44;;;13.22;100.00
57594;BME280;43423;46.510;6.686;2023-10-19T06:03:23;94730.00;;;13.20;100.00
57594;BME280;43423;46.510;6.686;2023-10-19T06:05:49;94723.31;;;13.15;100.00
57594;BME280;43423;46.510;6.686;2023-10-19T06:08:14;94726.44;;;13.32;100.00
57594;BME280;43423;46.510;6.686;2023-10-19T06:10:41;94723.34;;;13.36;100.00
57594;BME280;43423;46.510;6.686;2023-10-19T06:13:07;94719.69;;;13.62;100.00
57594;BME280;43423;46.510;6.686;2023-10-19T06:15:35;94727.06;;;13.88;100.00
57594;BME280;43423;46.510;6.686;2023-10-19T06:18:01;94733.25;;;13.81;100.00
57594;BME280;43423;46.510;6.686;2023-10-19T06:20:27;94722.28;;;13.88;100.00
57594;BME280;43423;46.510;6.686;2023-10-19T06:22:59;94727.75;;;13.81;100.00
57594;BME280;43423;46.510;6.686;2023-10-19T06:25:32;94722.22;;;13.81;100.00
57594;BME280;43423;46.510;6.686;2023-10-19T06:28:00;94723.97;;;13.91;100.00
57594;BME280;43423;46.510;6.686;2023-10-19T06:30:27;94727.47;;;13.92;100.00
57594;BME280;43423;46.510;6.686;2023-10-19T06:32:55;94737.34;;;14.08;100.00
57594;BME280;43423;46.510;6.686;2023-10-19T06:35:22;94724.84;;;13.86;100.00
57594;BME280;43423;46.510;6.686;2023-10-19T06:37:48;94730.06;;;13.97;100.00
57594;BME280;43423;46.510;6.686;2023-10-19T06:40:15;94729.72;;;14.01;100.00
57594;BME280;43423;46.510;6.686;2023-10-19T06:42:46;94730.34;;;14.07;100.00
57594;BME280;43423;46.510;6.686;2023-10-19T06:45:13;94722.09;;;14.15;100.00
57594;BME280;43423;46.510;6.686;2023-10-19T06:47:46;94716.09;;;14.32;100.00
57594;BME280;43423;46.510;6.686;2023-10-19T06:50:13;94701.28;;;14.21;100.00
57594;BME280;43423;46.510;6.686;2023-10-19T06:52:42;94681.56;;;13.89;100.00
57594;BME280;43423;46.510;6.686;2023-10-19T06:55:09;94674.31;;;14.07;100.00
57594;BME280;43423;46.510;6.686;2023-10-19T06:57:55;94673.13;;;13.94;100.00
57594;BME280;43423;46.510;6.686;2023-10-19T07:00:24;94681.09;;;13.69;100.00
57594;BME280;43423;46.510;6.686;2023-10-19T07:02:57;94679.44;;;13.74;100.00
57594;BME280;43423;46.510;6.686;2023-10-19T07:05:25;94667.38;;;13.85;100.00
57594;BME280;43423;46.510;6.686;2023-10-19T07:07:55;94662.63;;;13.64;100.00
57594;BME280;43423;46.510;6.686;2023-10-19T07:10:23;94673.88;;;13.66;100.00
57594;BME280;43423;46.510;6.686;2023-10-19T07:12:51;94676.53;;;13.80;100.00
57594;BME280;43423;46.510;6.686;2023-10-19T07:15:17;94670.03;;;13.69;100.00
57594;BME280;43423;46.510;6.686;2023-10-19T07:17:48;94674.03;;;13.61;100.00
57594;BME280;43423;46.510;6.686;2023-10-19T07:20:15;94686.06;;;13.71;100.00
57594;BME280;43423;46.510;6.686;2023-10-19T07:23:01;94684.28;;;13.81;100.00
57594;BME280;43423;46.510;6.686;2023-10-19T07:25:36;94687.66;;;13.59;100.00
57594;BME280;43423;46.510;6.686;2023-10-19T07:28:14;94673.19;;;13.45;100.00
57594;BME280;43423;46.510;6.686;2023-10-19T07:30:41;94685.94;;;13.27;100.00
57594;BME280;43423;46.510;6.686;2023-10-19T07:33:10;94687.44;;;13.15;100.00
57594;BME280;43423;46.510;6.686;2023-10-19T07:35:43;94692.31;;;13.22;100.00
57594;BME280;43423;46.510;6.686;2023-10-19T07:38:12;94691.66;;;13.16;100.00
57594;BME280;43423;46.510;6.686;2023-10-19T07:40:39;94678.22;;;13.33;100.00
57594;BME280;43423;46.510;6.686;2023-10-19T07:43:04;94679.06;;;13.21;100.00
57594;BME280;43423;46.510;6.686;2023-10-19T07:45:31;94669.00;;;13.31;100.00
57594;BME280;43423;46.510;6.686;2023-10-19T07:47:57;94672.81;;;13.49;100.00
57594;BME280;43423;46.510;6.686;2023-10-19T07:50:23;94668.34;;;13.66;100.00
57594;BME280;43423;46.510;6.686;2023-10-19T07:52:51;94669.88;;;14.99;100.00
57594;BME280;43423;46.510;6.686;2023-10-19T07:55:18;94671.34;;;15.99;100.00
57594;BME280;43423;46.510;6.686;2023-10-19T07:57:44;94665.50;;;15.49;100.00
57594;BME280;43423;46.510;6.686;2023-10-19T08:00:12;94666.22;;;15.80;100.00
57594;BME280;43423;46.510;6.686;2023-10-19T08:02:43;94665.81;;;16.07;100.00
57594;BME280;43423;46.510;6.686;2023-10-19T08:05:15;94666.53;;;15.00;100.00
57594;BME280;43423;46.510;6.686;2023-10-19T08:07:44;94668.63;;;15.61;100.00
57594;BME280;43423;46.510;6.686;2023-10-19T08:10:11;94664.69;;;15.95;100.00
57594;BME280;43423;46.510;6.686;2023-10-19T08:12:40;94666.94;;;15.27;100.00
57594;BME280;43423;46.510;6.686;2023-10-19T08:15:09;94662.34;;;15.30;100.00
57594;BME280;43423;46.510;6.686;2023-10-19T08:17:50;94675.44;;;15.60;100.00
57594;BME280;43423;46.510;6.686;2023-10-19T08:20:18;94664.75;;;15.56;100.00
57594;BME280;43423;46.510;6.686;2023-10-19T08:22:54;94663.25;;;15.48;100.00
57594;BME280;43423;46.510;6.686;2023-10-19T08:25:26;94668.44;;;15.59;100.00
57594;BME280;43423;46.510;6.686;2023-10-19T08:27:55;94664.75;;;15.56;100.00
57594;BME280;43423;46.510;6.686;2023-10-19T08:30:24;94667.13;;;15.37;100.00
57594;BME280;43423;46.510;6.686;2023-10-19T08:32:51;94663.25;;;15.10;100.00
57594;BME280;43423;46.510;6.686;2023-10-19T08:35:19;94653.47;;;14.42;100.00
57594;BME280;43423;46.510;6.686;2023-10-19T08:37:49;94655.84;;;14.38;100.00
57594;BME280;43423;46.510;6.686;2023-10-19T08:40:15;94646.41;;;14.25;100.00
57594;BME280;43423;46.510;6.686;2023-10-19T08:42:44;94644.53;;;14.20;100.00
57594;BME280;43423;46.510;6.686;2023-10-19T08:45:11;94643.47;;;14.31;100.00
57594;BME280;43423;46.510;6.686;2023-10-19T08:48:01;94641.41;;;14.75;100.00
57594;BME280;43423;46.510;6.686;2023-10-19T08:50:29;94639.78;;;14.80;100.00
57594;BME280;43423;46.510;6.686;2023-10-19T08:52:57;94645.69;;;14.92;100.00
57594;BME280;43423;46.510;6.686;2023-10-19T08:55:23;94629.25;;;14.78;100.00
57594;BME280;43423;46.510;6.686;2023-10-19T08:57:49;94616.56;;;14.32;100.00
57594;BME280;43423;46.510;6.686;2023-10-19T09:00:16;94619.28;;;14.16;100.00
57594;BME280;43423;46.510;6.686;2023-10-19T09:02:45;94617.53;;;14.06;100.00
57594;BME280;43423;46.510;6.686;2023-10-19T09:05:11;94609.81;;;14.04;100.00
57594;BME280;43423;46.510;6.686;2023-10-19T09:07:54;94598.91;;;13.91;100.00
57594;BME280;43423;46.510;6.686;2023-10-19T09:10:24;94602.72;;;13.88;100.00
57594;BME280;43423;46.510;6.686;2023-10-19T09:13:04;94582.88;;;13.97;100.00
57594;BME280;43423;46.510;6.686;2023-10-19T09:15:38;94570.94;;;14.02;100.00
57594;BME280;43423;46.510;6.686;2023-10-19T09:20:40;94577.16;;;14.39;100.00
57594;BME280;43423;46.510;6.686;2023-10-19T09:23:07;94587.75;;;14.71;100.00
57594;BME280;43423;46.510;6.686;2023-10-19T09:25:33;94590.47;;;14.56;100.00
57594;BME280;43423;46.510;6.686;2023-10-19T09:28:01;94583.31;;;14.75;100.00
57594;BME280;43423;46.510;6.686;2023-10-19T09:30:29;94587.19;;;14.72;100.00
57594;BME280;43423;46.510;6.686;2023-10-19T09:32:57;94574.00;;;14.35;100.00
57594;BME280;43423;46.510;6.686;2023-10-19T09:35:24;94577.88;;;14.32;100.00
57594;BME280;43423;46.510;6.686;2023-10-19T09:37:54;94567.22;;;14.51;100.00
57594;BME280;43423;46.510;6.686;2023-10-19T09:40:21;94577.75;;;14.60;100.00
57594;BME280;43423;46.510;6.686;2023-10-19T09:42:49;94570.59;;;14.72;100.00
57594;BME280;43423;46.510;6.686;2023-10-19T09:45:19;94561.72;;;14.59;100.00
57594;BME280;43423;46.510;6.686;2023-10-19T09:47:52;94557.88;;;15.00;100.00
57594;BME280;43423;46.510;6.686;2023-10-19T09:50:19;94556.16;;;15.58;99.98
57594;BME280;43423;46.510;6.686;2023-10-19T09:52:45;94562.38;;;16.62;100.00
57594;BME280;43423;46.510;6.686;2023-10-19T09:55:28;94568.25;;;16.73;92.29
57594;BME280;43423;46.510;6.686;2023-10-19T09:57:59;94565.16;;;16.69;99.56
57594;BME280;43423;46.510;6.686;2023-10-19T10:00:28;94556.41;;;16.73;95.49
57594;BME280;43423;46.510;6.686;2023-10-19T10:02:57;94551.78;;;17.00;93.10
57594;BME280;43423;46.510;6.686;2023-10-19T10:10:43;94557.44;;;16.53;96.98
57594;BME280;43423;46.510;6.686;2023-10-19T10:15:52;94556.94;;;16.46;98.27
57594;BME280;43423;46.510;6.686;2023-10-19T10:18:18;94563.69;;;16.28;100.00
57594;BME280;43423;46.510;6.686;2023-10-19T10:20:44;94548.88;;;15.85;100.00
57594;BME280;43423;46.510;6.686;2023-10-19T10:23:20;94560.06;;;16.10;100.00
57594;BME280;43423;46.510;6.686;2023-10-19T10:25:50;94569.34;;;16.05;100.00
57594;BME280;43423;46.510;6.686;2023-10-19T10:28:19;94573.25;;;15.95;100.00
57594;BME280;43423;46.510;6.686;2023-10-19T10:33:49;94564.91;;;15.95;100.00
57594;BME280;43423;46.510;6.686;2023-10-19T10:36:20;94553.16;;;15.71;100.00
57594;BME280;43423;46.510;6.686;2023-10-19T10:38:48;94556.91;;;16.14;100.00
57594;BME280;43423;46.510;6.686;2023-10-19T10:41:21;94563.66;;;16.36;100.00
57594;BME280;43423;46.510;6.686;2023-10-19T10:43:48;94563.03;;;16.45;100.00
57594;BME280;43423;46.510;6.686;2023-10-19T10:46:15;94557.38;;;16.35;100.00
57594;BME280;43423;46.510;6.686;2023-10-19T10:48:42;94558.47;;;16.32;100.00
57594;BME280;43423;46.510;6.686;2023-10-19T10:51:22;94572.09;;;16.45;99.44
57594;BME280;43423;46.510;6.686;2023-10-19T10:53:52;94554.75;;;16.37;97.98
57594;BME280;43423;46.510;6.686;2023-10-19T10:56:20;94555.88;;;16.34;99.60
57594;BME280;43423;46.510;6.686;2023-10-19T10:58:46;94578.28;;;16.29;99.96
57594;BME280;43423;46.510;6.686;2023-10-19T11:01:12;94565.28;;;16.39;99.35
57594;BME280;43423;46.510;6.686;2023-10-19T11:03:41;94551.28;;;16.29;96.43
57594;BME280;43423;46.510;6.686;2023-10-19T11:06:11;94564.09;;;16.17;97.09
57594;BME280;43423;46.510;6.686;2023-10-19T11:08:38;94553.53;;;15.75;97.15
57594;BME280;43423;46.510;6.686;2023-10-19T11:11:07;94550.81;;;15.52;100.00
57594;BME280;43423;46.510;6.686;2023-10-19T11:13:36;94539.34;;;15.56;100.00
57594;BME280;43423;46.510;6.686;2023-10-19T11:16:05;94530.38;;;15.17;100.00
57594;BME280;43423;46.510;6.686;2023-10-19T11:21:00;94516.53;;;15.17;100.00
57594;BME280;43423;46.510;6.686;2023-10-19T11:26:08;94495.66;;;15.16;100.00
57594;BME280;43423;46.510;6.686;2023-10-19T11:28:35;94493.38;;;15.53;100.00
57594;BME280;43423;46.510;6.686;2023-10-19T11:31:14;94493.34;;;15.68;100.00
57594;BME280;43423;46.510;6.686;2023-10-19T11:33:41;94485.09;;;15.93;100.00
57594;BME280;43423;46.510;6.686;2023-10-19T11:36:08;94483.53;;;16.15;100.00
57594;BME280;43423;46.510;6.686;2023-10-19T11:38:34;94482.75;;;16.22;100.00
57594;BME280;43423;46.510;6.686;2023-10-19T11:41:01;94485.25;;;16.35;100.00
57594;BME280;43423;46.510;6.686;2023-10-19T11:43:28;94494.44;;;16.45;100.00
57594;BME280;43423;46.510;6.686;2023-10-19T11:45:54;94476.47;;;16.46;100.00
57594;BME280;43423;46.510;6.686;2023-10-19T11:48:19;94466.00;;;16.12;100.00
57594;BME280;43423;46.510;6.686;2023-10-19T11:50:46;94466.75;;;16.38;100.00
57594;BME280;43423;46.510;6.686;2023-10-19T11:53:12;94472.75;;;16.19;98.06
57594;BME280;43423;46.510;6.686;2023-10-19T11:55:38;94479.09;;;16.44;99.89
57594;BME280;43423;46.510;6.686;2023-10-19T11:58:07;94473.44;;;16.27;100.00
57594;BME280;43423;46.510;6.686;2023-10-19T12:00:37;94462.91;;;16.01;100.00
57594;BME280;43423;46.510;6.686;2023-10-19T12:03:04;94449.34;;;16.12;100.00
57594;BME280;43423;46.510;6.686;2023-10-19T12:05:30;94438.97;;;15.88;100.00
57594;BME280;43423;46.510;6.686;2023-10-19T12:07:55;94425.28;;;15.90;100.00
57594;BME280;43423;46.510;6.686;2023-10-19T12:10:22;94424.94;;;16.11;100.00
57594;BME280;43423;46.510;6.686;2023-10-19T12:12:56;94408.25;;;15.53;100.00
57594;BME280;43423;46.510;6.686;2023-10-19T12:15:22;94405.00;;;15.80;100.00
57594;BME280;43423;46.510;6.686;2023-10-19T12:17:48;94403.75;;;16.06;100.00
57594;BME280;43423;46.510;6.686;2023-10-19T12:20:16;94385.03;;;16.14;100.00
57594;BME280;43423;46.510;6.686;2023-10-19T12:22:41;94377.88;;;16.03;100.00
57594;BME280;43423;46.510;6.686;2023-10-19T12:25:08;94374.44;;;16.20;100.00
57594;BME280;43423;46.510;6.686;2023-10-19T12:27:33;94372.22;;;16.18;100.00
57594;BME280;43423;46.510;6.686;2023-10-19T12:29:59;94378.84;;;16.23;100.00
57594;BME280;43423;46.510;6.686;2023-10-19T12:32:25;94368.94;;;16.37;100.00
57594;BME280;43423;46.510;6.686;2023-10-19T12:34:51;94363.06;;;16.51;100.00
57594;BME280;43423;46.510;6.686;2023-10-19T12:37:23;94370.84;;;16.52;99.72
57594;BME280;43423;46.510;6.686;2023-10-19T12:39:50;94363.97;;;16.78;100.00
57594;BME280;43423;46.510;6.686;2023-10-19T12:42:16;94358.50;;;17.05;100.00
57594;BME280;43423;46.510;6.686;2023-10-19T12:44:42;94356.53;;;16.81;97.65
57594;BME280;43423;46.510;6.686;2023-10-19T12:47:10;94347.97;;;16.86;99.49
57594;BME280;43423;46.510;6.686;2023-10-19T12:49:41;94333.66;;;17.24;98.88
57594;BME280;43423;46.510;6.686;2023-10-19T12:52:08;94320.69;;;17.10;97.73
57594;BME280;43423;46.510;6.686;2023-10-19T12:54:34;94308.28;;;17.38;98.09
57594;BME280;43423;46.510;6.686;2023-10-19T12:57:03;94309.91;;;17.68;96.71
57594;BME280;43423;46.510;6.686;2023-10-19T12:59:35;94295.28;;;17.67;95.07
57594;BME280;43423;46.510;6.686;2023-10-19T13:02:07;94307.22;;;17.77;96.03
57594;BME280;43423;46.510;6.686;2023-10-19T13:04:40;94310.19;;;17.62;96.58
57594;BME280;43423;46.510;6.686;2023-10-19T13:07:07;94300.53;;;17.36;96.21
57594;BME280;43423;46.510;6.686;2023-10-19T13:09:33;94304.31;;;17.58;96.02
57594;BME280;43423;46.510;6.686;2023-10-19T13:12:01;94301.97;;;17.54;97.46
57594;BME280;43423;46.510;6.686;2023-10-19T13:14:27;94284.66;;;17.73;95.98
57594;BME280;43423;46.510;6.686;2023-10-19T13:16:53;94278.00;;;17.32;93.52
57594;BME280;43423;46.510;6.686;2023-10-19T13:19:22;94285.13;;;17.52;97.78